Time;durP1;ratioP1;P1;durP2;ratioP2;P2;SDS_P1;SDS_P2;PMS_P1;PMS_P2;Temp;Humidity;BMP_temperature;BMP_pressure;BME280_temperature;BME280_humidity;BME280_pressure;Samples;Min_cycle;Max_cycle;Signal;HPM_P1;HPM_P2
2020/12/29 00:01:32;;;;;;;3.28;2.70;;;;;;;;;;5073168;28;20206;-44
2020/12/29 00:03:58;;;;;;;3.50;2.70;;;;;;;;;;5073619;28;20565;-45
2020/12/29 00:06:23;;;;;;;2.63;2.42;;;;;;;;;;5073178;28;20213;-45
2020/12/29 00:08:49;;;;;;;2.42;2.22;;;;;;;;;;5073712;28;20251;-45
2020/12/29 00:11:15;;;;;;;2.42;2.22;;;;;;;;;;5073263;28;20200;-45
2020/12/29 00:13:42;;;;;;;4.47;2.60;;;;;;;;;;5073109;28;20441;-45
2020/12/29 00:16:08;;;;;;;3.78;2.70;;;;;;;;;;5072716;28;20253;-45
2020/12/29 00:18:35;;;;;;;3.17;2.67;;;;;;;;;;5073010;28;20506;-45
2020/12/29 00:21:01;;;;;;;2.53;2.33;;;;;;;;;;5073874;28;20613;-45
2020/12/29 00:23:28;;;;;;;2.60;2.40;;;;;;;;;;5073169;28;20599;-45
2020/12/29 00:25:54;;;;;;;2.38;2.08;;;;;;;;;;5070579;28;20193;-45
2020/12/29 00:28:20;;;;;;;2.78;2.45;;;;;;;;;;5071371;28;20210;-44
2020/12/29 00:30:46;;;;;;;2.60;2.40;;;;;;;;;;5073267;28;20248;-45
2020/12/29 00:33:12;;;;;;;2.70;2.50;;;;;;;;;;5068532;28;20238;-44
2020/12/29 00:35:38;;;;;;;3.33;2.40;;;;;;;;;;5072591;28;20185;-45
2020/12/29 00:38:04;;;;;;;2.85;2.58;;;;;;;;;;5073807;28;20573;-46
2020/12/29 00:40:30;;;;;;;2.50;2.30;;;;;;;;;;5072738;28;20190;-45
2020/12/29 00:42:56;;;;;;;2.38;2.17;;;;;;;;;;5073144;28;20194;-45
2020/12/29 00:45:22;;;;;;;2.60;2.40;;;;;;;;;;5071729;28;20178;-45
2020/12/29 00:47:48;;;;;;;2.88;2.65;;;;;;;;;;5072787;28;20186;-46
2020/12/29 00:50:14;;;;;;;2.30;2.10;;;;;;;;;;5073286;28;20255;-45
2020/12/29 00:52:40;;;;;;;2.28;2.08;;;;;;;;;;5072968;28;20198;-45
2020/12/29 00:55:06;;;;;;;2.15;1.95;;;;;;;;;;5072526;28;20316;-45
2020/12/29 00:57:32;;;;;;;2.40;2.20;;;;;;;;;;5072864;28;20469;-45
2020/12/29 00:59:57;;;;;;;2.33;2.13;;;;;;;;;;5065014;28;20194;-44
2020/12/29 01:02:23;;;;;;;2.55;2.35;;;;;;;;;;5076832;28;20198;-45
2020/12/29 01:04:49;;;;;;;2.20;2.00;;;;;;;;;;5076862;28;20266;-45
2020/12/29 01:07:15;;;;;;;2.55;2.35;;;;;;;;;;5060369;28;20986;-45
2020/12/29 01:09:41;;;;;;;2.67;2.22;;;;;;;;;;5075537;28;20465;-45
2020/12/29 01:12:07;;;;;;;2.28;2.08;;;;;;;;;;5077001;28;20236;-46
2020/12/29 01:14:33;;;;;;;2.30;2.10;;;;;;;;;;5075800;28;20181;-45
2020/12/29 01:16:59;;;;;;;2.42;2.22;;;;;;;;;;5072458;28;20179;-45
2020/12/29 01:19:25;;;;;;;2.28;2.08;;;;;;;;;;5076857;28;20185;-45
2020/12/29 01:21:52;;;;;;;2.40;2.20;;;;;;;;;;5076740;28;20575;-45
2020/12/29 01:24:18;;;;;;;2.53;2.33;;;;;;;;;;5076709;28;20265;-45
2020/12/29 01:26:44;;;;;;;2.38;2.20;;;;;;;;;;5063556;28;20266;-46
2020/12/29 01:29:10;;;;;;;2.40;2.20;;;;;;;;;;5068558;28;20278;-46
2020/12/29 01:31:36;;;;;;;2.30;2.10;;;;;;;;;;5075494;28;20202;-45
2020/12/29 01:34:02;;;;;;;2.00;1.90;;;;;;;;;;5076267;28;20186;-45
2020/12/29 01:36:28;;;;;;;2.00;1.90;;;;;;;;;;5076331;28;20449;-45
2020/12/29 01:38:54;;;;;;;2.50;2.30;;;;;;;;;;5077064;28;20675;-45
2020/12/29 01:41:21;;;;;;;2.08;1.98;;;;;;;;;;5076190;28;20182;-46
2020/12/29 01:43:48;;;;;;;2.40;2.20;;;;;;;;;;5076521;28;20200;-45
2020/12/29 01:46:14;;;;;;;2.25;2.15;;;;;;;;;;5074887;28;20187;-45
2020/12/29 01:48:40;;;;;;;2.20;2.00;;;;;;;;;;5075325;28;20190;-46
2020/12/29 01:51:06;;;;;;;2.20;2.00;;;;;;;;;;5076453;28;20213;-46
2020/12/29 01:53:32;;;;;;;2.50;2.30;;;;;;;;;;5075895;28;20549;-45
2020/12/29 01:55:58;;;;;;;2.40;2.20;;;;;;;;;;5075542;28;20193;-46
2020/12/29 01:58:24;;;;;;;2.42;2.22;;;;;;;;;;5075644;28;20620;-45
2020/12/29 02:00:50;;;;;;;2.33;2.13;;;;;;;;;;5075761;28;20225;-44
2020/12/29 02:03:17;;;;;;;2.17;1.98;;;;;;;;;;5076013;28;20437;-45
2020/12/29 02:05:47;;;;;;;1.98;1.88;;;;;;;;;;5070923;28;20878;-45
2020/12/29 02:08:14;;;;;;;2.03;1.80;;;;;;;;;;5074210;28;20721;-46
2020/12/29 02:10:44;;;;;;;2.17;2.08;;;;;;;;;;5075318;28;20210;-45
2020/12/29 02:13:10;;;;;;;2.42;2.20;;;;;;;;;;5074511;28;20193;-45
2020/12/29 02:15:36;;;;;;;2.28;2.08;;;;;;;;;;5075207;28;20187;-46
2020/12/29 02:18:02;;;;;;;2.00;1.90;;;;;;;;;;5075861;28;20175;-45
2020/12/29 02:20:28;;;;;;;2.17;1.98;;;;;;;;;;5075547;28;20261;-45
2020/12/29 02:22:54;;;;;;;2.38;2.17;;;;;;;;;;5065972;28;20302;-46
2020/12/29 02:25:20;;;;;;;2.38;2.17;;;;;;;;;;5075017;28;21565;-45
2020/12/29 02:27:50;;;;;;;1.98;1.80;;;;;;;;;;5075084;28;20254;-46
2020/12/29 02:30:17;;;;;;;2.05;1.90;;;;;;;;;;5068457;28;20473;-46
2020/12/29 02:32:43;;;;;;;1.83;1.73;;;;;;;;;;5070537;28;20175;-46
2020/12/29 02:35:10;;;;;;;2.10;2.00;;;;;;;;;;5074609;28;20457;-46
2020/12/29 02:37:36;;;;;;;1.80;1.70;;;;;;;;;;5075262;28;20185;-46
2020/12/29 02:40:02;;;;;;;2.20;2.10;;;;;;;;;;5075332;28;20179;-46
2020/12/29 02:42:28;;;;;;;2.15;1.98;;;;;;;;;;5074576;28;20190;-46
2020/12/29 02:44:54;;;;;;;2.20;2.00;;;;;;;;;;5073800;28;20181;-46
2020/12/29 02:47:20;;;;;;;2.03;1.83;;;;;;;;;;5075517;28;20178;-46
2020/12/29 02:49:46;;;;;;;2.20;2.00;;;;;;;;;;5074169;28;20527;-46
2020/12/29 02:52:12;;;;;;;2.17;2.05;;;;;;;;;;5075269;28;20179;-46
2020/12/29 02:54:38;;;;;;;2.10;1.92;;;;;;;;;;5074010;28;20228;-44
2020/12/29 02:57:04;;;;;;;2.10;1.95;;;;;;;;;;5061825;28;20636;-46
2020/12/29 02:59:30;;;;;;;1.75;1.65;;;;;;;;;;5053608;28;20179;-46
2020/12/29 03:01:57;;;;;;;1.98;1.88;;;;;;;;;;5043627;28;20246;-46
2020/12/29 03:04:23;;;;;;;1.77;1.67;;;;;;;;;;5053228;28;20210;-46
2020/12/29 03:06:49;;;;;;;1.90;1.80;;;;;;;;;;5054687;28;20215;-45
2020/12/29 03:09:15;;;;;;;1.77;1.67;;;;;;;;;;5054794;28;20175;-45
2020/12/29 03:11:42;;;;;;;2.20;2.00;;;;;;;;;;5053540;28;20210;-46
2020/12/29 03:14:08;;;;;;;2.10;1.90;;;;;;;;;;5054627;28;20578;-46
2020/12/29 03:16:35;;;;;;;2.10;1.90;;;;;;;;;;5053981;28;20179;-46
2020/12/29 03:19:04;;;;;;;2.20;2.00;;;;;;;;;;5055255;28;20504;-46
2020/12/29 03:21:30;;;;;;;2.67;2.22;;;;;;;;;;5053509;28;20222;-46
2020/12/29 03:23:56;;;;;;;2.08;1.90;;;;;;;;;;5045126;28;20187;-46
2020/12/29 03:26:23;;;;;;;1.63;1.52;;;;;;;;;;5053537;28;20186;-46
2020/12/29 03:28:49;;;;;;;3.30;2.00;;;;;;;;;;5053501;28;20270;-46
2020/12/29 03:31:15;;;;;;;2.60;1.70;;;;;;;;;;5053751;28;20214;-46
2020/12/29 03:33:42;;;;;;;1.90;1.80;;;;;;;;;;5053011;28;20221;-46
2020/12/29 03:36:08;;;;;;;1.90;1.80;;;;;;;;;;5046691;28;20183;-46
2020/12/29 03:38:34;;;;;;;1.92;1.83;;;;;;;;;;5054101;28;20191;-45
2020/12/29 03:41:00;;;;;;;1.80;1.70;;;;;;;;;;5053682;28;20187;-46
2020/12/29 03:43:26;;;;;;;1.95;1.83;;;;;;;;;;5053814;28;20251;-46
2020/12/29 03:45:52;;;;;;;1.98;1.80;;;;;;;;;;5053480;28;20227;-46
2020/12/29 03:48:19;;;;;;;1.90;1.80;;;;;;;;;;5053947;28;20270;-46
2020/12/29 03:50:46;;;;;;;1.80;1.70;;;;;;;;;;5053408;28;20279;-46
2020/12/29 03:53:12;;;;;;;2.08;1.88;;;;;;;;;;5054328;28;20283;-46
2020/12/29 03:55:38;;;;;;;1.60;1.50;;;;;;;;;;5054181;28;20194;-45
2020/12/29 03:58:04;;;;;;;1.70;1.60;;;;;;;;;;5056778;28;20208;-46
2020/12/29 04:00:30;;;;;;;1.90;1.80;;;;;;;;;;5065682;28;20210;-46
2020/12/29 04:02:56;;;;;;;1.63;1.52;;;;;;;;;;5074100;28;20189;-46
2020/12/29 04:05:22;;;;;;;2.00;1.80;;;;;;;;;;5072981;28;20273;-46
2020/12/29 04:07:48;;;;;;;1.90;1.67;;;;;;;;;;5073714;28;20194;-45
2020/12/29 04:10:14;;;;;;;2.00;1.67;;;;;;;;;;5072768;28;20254;-46
2020/12/29 04:12:40;;;;;;;1.83;1.73;;;;;;;;;;5073380;28;20783;-46
2020/12/29 04:15:07;;;;;;;1.77;1.67;;;;;;;;;;5072736;28;20185;-46
2020/12/29 04:17:36;;;;;;;1.52;1.42;;;;;;;;;;5073396;28;20205;-46
2020/12/29 04:20:07;;;;;;;1.63;1.52;;;;;;;;;;5073830;28;20457;-46
2020/12/29 04:22:33;;;;;;;3.13;1.80;;;;;;;;;;5072748;28;20521;-46
2020/12/29 04:25:00;;;;;;;1.60;1.50;;;;;;;;;;5072537;28;20605;-46
2020/12/29 04:27:26;;;;;;;1.65;1.55;;;;;;;;;;5055722;28;20201;-46
2020/12/29 04:29:52;;;;;;;1.70;1.60;;;;;;;;;;5068417;28;20543;-46
2020/12/29 04:32:18;;;;;;;1.55;1.45;;;;;;;;;;5073385;28;20265;-46
2020/12/29 04:34:48;;;;;;;1.70;1.60;;;;;;;;;;5072273;28;20170;-46
2020/12/29 04:37:14;;;;;;;1.60;1.50;;;;;;;;;;5072520;28;20183;-44
2020/12/29 04:39:40;;;;;;;1.77;1.67;;;;;;;;;;5060639;28;20206;-46
2020/12/29 04:42:08;;;;;;;1.50;1.40;;;;;;;;;;5054239;28;20174;-46
2020/12/29 04:44:34;;;;;;;1.38;1.27;;;;;;;;;;5072800;28;20546;-46
2020/12/29 04:47:00;;;;;;;1.50;1.40;;;;;;;;;;5073781;28;20179;-46
2020/12/29 04:49:27;;;;;;;1.60;1.50;;;;;;;;;;5072995;28;20179;-46
2020/12/29 04:51:56;;;;;;;1.40;1.30;;;;;;;;;;5060593;28;20313;-46
2020/12/29 04:54:24;;;;;;;1.50;1.40;;;;;;;;;;5056274;28;20182;-46
2020/12/29 04:57:00;;;;;;;1.60;1.50;;;;;;;;;;5073487;28;20273;-46
2020/12/29 04:59:27;;;;;;;1.20;1.10;;;;;;;;;;5073140;28;20202;-46
2020/12/29 05:01:53;;;;;;;1.55;1.45;;;;;;;;;;5072978;28;20226;-45
2020/12/29 05:04:19;;;;;;;1.50;1.40;;;;;;;;;;5072912;28;20213;-46
2020/12/29 05:06:45;;;;;;;1.70;1.55;;;;;;;;;;5071974;28;20575;-46
2020/12/29 05:09:11;;;;;;;1.48;1.38;;;;;;;;;;5073671;28;20178;-46
2020/12/29 05:11:38;;;;;;;1.50;1.40;;;;;;;;;;5072983;28;20194;-46
2020/12/29 05:14:04;;;;;;;1.65;1.55;;;;;;;;;;5072646;28;20577;-46
2020/12/29 05:16:30;;;;;;;1.30;1.20;;;;;;;;;;5072243;28;20183;-45
2020/12/29 05:18:59;;;;;;;1.42;1.33;;;;;;;;;;5072499;28;20190;-46
2020/12/29 05:21:25;;;;;;;1.45;1.35;;;;;;;;;;5072723;28;20228;-45
2020/12/29 05:23:51;;;;;;;1.48;1.38;;;;;;;;;;5072987;28;20592;-46
2020/12/29 05:26:18;;;;;;;1.40;1.30;;;;;;;;;;5072636;28;20213;-46
2020/12/29 05:28:46;;;;;;;1.15;1.10;;;;;;;;;;5072558;28;20190;-46
2020/12/29 05:31:12;;;;;;;1.27;1.17;;;;;;;;;;5072458;28;20205;-46
2020/12/29 05:33:39;;;;;;;1.00;1.00;;;;;;;;;;5071834;28;20202;-46
2020/12/29 05:36:05;;;;;;;1.10;1.10;;;;;;;;;;5072184;28;20213;-46
2020/12/29 05:38:32;;;;;;;1.30;1.20;;;;;;;;;;5072765;28;20559;-46
2020/12/29 05:40:59;;;;;;;1.40;1.30;;;;;;;;;;5072279;28;20186;-46
2020/12/29 05:43:32;;;;;;;1.58;1.17;;;;;;;;;;5072562;28;20336;-46
2020/12/29 05:45:58;;;;;;;1.40;1.30;;;;;;;;;;5071988;28;20182;-46
2020/12/29 05:48:24;;;;;;;1.20;1.10;;;;;;;;;;5075779;28;20505;-46
2020/12/29 05:50:50;;;;;;;1.10;1.10;;;;;;;;;;5075961;28;20336;-45
2020/12/29 05:53:20;;;;;;;1.17;1.17;;;;;;;;;;5076421;28;20201;-45
2020/12/29 05:55:46;;;;;;;1.10;1.05;;;;;;;;;;5074441;28;20212;-46
2020/12/29 05:58:13;;;;;;;2.47;1.10;;;;;;;;;;5076250;28;20437;-46
2020/12/29 06:00:40;;;;;;;1.13;1.02;;;;;;;;;;5075635;28;20228;-46
2020/12/29 06:03:06;;;;;;;1.27;1.17;;;;;;;;;;5071719;28;20236;-46
2020/12/29 06:05:33;;;;;;;1.00;1.00;;;;;;;;;;5074901;28;20183;-46
2020/12/29 06:08:00;;;;;;;1.27;1.17;;;;;;;;;;5076291;28;20178;-46
2020/12/29 06:10:27;;;;;;;1.40;1.30;;;;;;;;;;5075434;28;20197;-46
2020/12/29 06:12:54;;;;;;;1.20;1.13;;;;;;;;;;5075865;28;20190;-44
2020/12/29 06:15:32;;;;;;;1.15;1.00;;;;;;;;;;5072921;28;20175;-46
2020/12/29 06:17:59;;;;;;;1.05;1.02;;;;;;;;;;5056235;28;20190;-45
2020/12/29 06:20:46;;;;;;;1.23;1.13;;;;;;;;;;5067288;28;20193;-46
2020/12/29 06:23:15;;;;;;;1.25;1.10;;;;;;;;;;5075143;28;20281;-46
2020/12/29 06:25:43;;;;;;;1.05;0.95;;;;;;;;;;5074493;28;20277;-45
2020/12/29 06:28:12;;;;;;;0.70;0.70;;;;;;;;;;5075707;28;20193;-45
2020/12/29 06:30:38;;;;;;;0.98;0.98;;;;;;;;;;5074585;28;20202;-46
2020/12/29 06:33:04;;;;;;;1.00;1.00;;;;;;;;;;5075808;28;20183;-46
2020/12/29 06:35:30;;;;;;;0.90;0.90;;;;;;;;;;5074450;28;20182;-45
2020/12/29 06:37:56;;;;;;;1.20;1.13;;;;;;;;;;5074518;28;20193;-45
2020/12/29 06:40:23;;;;;;;0.90;0.90;;;;;;;;;;5075256;28;20178;-46
2020/12/29 06:42:49;;;;;;;0.90;0.90;;;;;;;;;;5075546;28;20608;-46
2020/12/29 06:45:15;;;;;;;0.90;0.90;;;;;;;;;;5073901;28;20574;-45
2020/12/29 06:47:45;;;;;;;1.00;1.00;;;;;;;;;;5075214;28;20231;-46
2020/12/29 06:50:25;;;;;;;1.10;1.00;;;;;;;;;;5074727;28;20269;-46
2020/12/29 06:53:09;;;;;;;0.88;0.88;;;;;;;;;;5071821;28;20178;-45
2020/12/29 06:55:39;;;;;;;0.77;0.77;;;;;;;;;;5074196;28;20194;-45
2020/12/29 06:58:06;;;;;;;1.25;1.00;;;;;;;;;;5073605;28;20194;-46
2020/12/29 07:00:32;;;;;;;0.90;0.90;;;;;;;;;;5074677;28;20549;-45
2020/12/29 07:02:58;;;;;;;0.80;0.80;;;;;;;;;;5075075;28;20185;-46
2020/12/29 07:05:24;;;;;;;0.75;0.75;;;;;;;;;;5073254;28;20237;-45
2020/12/29 07:07:52;;;;;;;0.90;0.90;;;;;;;;;;5075104;28;20174;-46
2020/12/29 07:10:18;;;;;;;1.67;0.80;;;;;;;;;;5074613;28;20226;-45
2020/12/29 07:12:46;;;;;;;0.80;0.80;;;;;;;;;;5073843;28;20537;-46
2020/12/29 07:15:31;;;;;;;0.90;0.90;;;;;;;;;;5073987;28;20843;-46
2020/12/29 07:17:58;;;;;;;1.67;0.80;;;;;;;;;;5054614;28;20179;-46
2020/12/29 07:20:26;;;;;;;1.50;0.93;;;;;;;;;;5070022;28;20233;-45
2020/12/29 07:22:58;;;;;;;1.23;1.02;;;;;;;;;;5054365;28;20190;-45
2020/12/29 07:25:25;;;;;;;1.08;1.00;;;;;;;;;;5065719;28;20186;-46
2020/12/29 07:27:53;;;;;;;9.55;1.05;;;;;;;;;;5073411;28;20590;-45
2020/12/29 07:30:19;;;;;;;0.93;0.90;;;;;;;;;;5073706;28;20657;-45
2020/12/29 07:32:45;;;;;;;3.50;0.98;;;;;;;;;;5074283;28;20178;-45
2020/12/29 07:35:12;;;;;;;3.33;0.90;;;;;;;;;;5073689;28;20466;-45
2020/12/29 07:37:40;;;;;;;1.13;1.00;;;;;;;;;;5073773;28;20189;-45
2020/12/29 07:40:07;;;;;;;2.95;0.93;;;;;;;;;;5073362;28;20174;-45
2020/12/29 07:42:33;;;;;;;0.98;0.77;;;;;;;;;;5073121;28;20590;-45
2020/12/29 07:44:59;;;;;;;2.35;0.98;;;;;;;;;;5072712;28;20188;-45
2020/12/29 07:47:25;;;;;;;4.05;1.00;;;;;;;;;;5073868;28;20218;-46
2020/12/29 07:49:51;;;;;;;5.47;1.10;;;;;;;;;;5073428;28;20501;-45
2020/12/29 07:52:24;;;;;;;2.13;0.80;;;;;;;;;;5074322;28;20214;-45
2020/12/29 07:55:09;;;;;;;2.60;1.20;;;;;;;;;;5073024;28;20604;-46
2020/12/29 07:57:35;;;;;;;3.50;1.15;;;;;;;;;;5073139;28;20198;-45
2020/12/29 08:00:14;;;;;;;1.58;1.30;;;;;;;;;;5072703;28;20535;-45
2020/12/29 08:02:41;;;;;;;2.28;1.45;;;;;;;;;;5073662;28;20190;-46
2020/12/29 08:05:07;;;;;;;1.48;1.30;;;;;;;;;;5072922;28;20178;-46
2020/12/29 08:07:34;;;;;;;1.88;1.15;;;;;;;;;;5072937;28;20257;-46
2020/12/29 08:10:00;;;;;;;2.63;1.30;;;;;;;;;;5071551;28;20194;-45
2020/12/29 08:12:26;;;;;;;3.25;1.23;;;;;;;;;;5073361;28;20285;-46
2020/12/29 08:14:52;;;;;;;2.95;1.20;;;;;;;;;;5072667;28;20266;-45
2020/12/29 08:17:18;;;;;;;2.50;1.35;;;;;;;;;;5074023;28;20300;-45
2020/12/29 08:19:56;;;;;;;3.53;1.27;;;;;;;;;;5073356;28;20174;-45
2020/12/29 08:22:25;;;;;;;3.13;1.23;;;;;;;;;;5056203;28;20205;-45
2020/12/29 08:24:51;;;;;;;1.85;1.10;;;;;;;;;;5073344;28;20174;-45
2020/12/29 08:27:17;;;;;;;2.85;1.20;;;;;;;;;;5073229;28;20239;-45
2020/12/29 08:29:43;;;;;;;2.13;1.55;;;;;;;;;;5073089;28;20198;-45
2020/12/29 08:32:10;;;;;;;1.63;1.10;;;;;;;;;;5073965;28;20253;-45
2020/12/29 08:34:40;;;;;;;2.15;1.35;;;;;;;;;;5072607;28;20213;-45
2020/12/29 08:37:08;;;;;;;4.03;1.17;;;;;;;;;;5073687;28;20180;-45
2020/12/29 08:39:34;;;;;;;1.38;0.95;;;;;;;;;;5072928;28;20174;-45
2020/12/29 08:42:02;;;;;;;3.17;0.90;;;;;;;;;;5073033;28;20274;-45
2020/12/29 08:44:31;;;;;;;1.70;1.20;;;;;;;;;;5072839;28;20197;-45
2020/12/29 08:46:57;;;;;;;1.10;1.00;;;;;;;;;;5073427;28;20732;-45
2020/12/29 08:49:30;;;;;;;1.95;0.90;;;;;;;;;;5073572;28;20293;-45
2020/12/29 08:51:56;;;;;;;2.13;1.10;;;;;;;;;;5073697;28;20202;-45
2020/12/29 08:54:22;;;;;;;3.70;1.10;;;;;;;;;;5072003;28;20182;-45
2020/12/29 08:56:48;;;;;;;6.50;1.15;;;;;;;;;;5072226;28;20668;-46
2020/12/29 08:59:22;;;;;;;1.45;1.00;;;;;;;;;;5068938;28;20186;-45
2020/12/29 09:01:49;;;;;;;1.10;0.82;;;;;;;;;;5073655;28;20453;-46
2020/12/29 09:04:28;;;;;;;1.92;0.90;;;;;;;;;;5073011;28;20183;-45
2020/12/29 09:06:55;;;;;;;0.85;0.73;;;;;;;;;;5072735;28;20186;-45
2020/12/29 09:09:21;;;;;;;1.50;0.80;;;;;;;;;;5073554;28;20205;-45
2020/12/29 09:11:47;;;;;;;1.58;0.85;;;;;;;;;;5073351;28;20253;-45
2020/12/29 09:14:13;;;;;;;5.97;0.90;;;;;;;;;;5072656;28;20182;-45
2020/12/29 09:16:39;;;;;;;1.05;0.90;;;;;;;;;;5072502;28;20261;-45
2020/12/29 09:19:14;;;;;;;1.00;0.88;;;;;;;;;;5073631;28;20175;-45
2020/12/29 09:21:40;;;;;;;0.85;0.80;;;;;;;;;;5073317;28;20213;-45
2020/12/29 09:24:06;;;;;;;0.90;0.90;;;;;;;;;;5077062;28;20581;-45
2020/12/29 09:26:32;;;;;;;0.70;0.70;;;;;;;;;;5076310;28;20217;-45
2020/12/29 09:28:58;;;;;;;1.17;1.00;;;;;;;;;;5077118;28;20193;-46
2020/12/29 09:31:28;;;;;;;2.05;0.80;;;;;;;;;;5076092;28;20210;-45
2020/12/29 09:33:54;;;;;;;1.95;0.85;;;;;;;;;;5061314;28;20433;-45
2020/12/29 09:36:23;;;;;;;1.38;0.98;;;;;;;;;;5065418;28;20175;-46
2020/12/29 09:38:50;;;;;;;1.48;0.90;;;;;;;;;;5077128;28;20189;-45
2020/12/29 09:41:16;;;;;;;0.80;0.80;;;;;;;;;;5076817;28;20888;-45
2020/12/29 09:43:46;;;;;;;2.25;0.90;;;;;;;;;;5076749;28;20210;-46
2020/12/29 09:46:12;;;;;;;6.03;0.85;;;;;;;;;;5075716;28;20205;-45
2020/12/29 09:48:38;;;;;;;2.33;0.80;;;;;;;;;;5076707;28;20235;-45
2020/12/29 09:51:05;;;;;;;1.13;0.85;;;;;;;;;;5075568;28;20323;-45
2020/12/29 09:53:31;;;;;;;1.40;0.70;;;;;;;;;;5076014;28;20191;-45
2020/12/29 09:55:57;;;;;;;0.90;0.90;;;;;;;;;;5076177;28;20186;-45
2020/12/29 09:58:23;;;;;;;0.77;0.77;;;;;;;;;;5074842;28;20224;-46
2020/12/29 10:00:50;;;;;;;3.55;0.90;;;;;;;;;;5075654;28;20484;-46
2020/12/29 10:03:16;;;;;;;0.73;0.70;;;;;;;;;;5076413;28;20182;-45
2020/12/29 10:05:46;;;;;;;2.72;0.70;;;;;;;;;;5070720;28;20229;-45
2020/12/29 10:08:12;;;;;;;3.70;0.90;;;;;;;;;;5062636;28;20175;-45
2020/12/29 10:10:38;;;;;;;1.02;0.80;;;;;;;;;;5075335;28;20339;-47
2020/12/29 10:13:04;;;;;;;1.88;0.80;;;;;;;;;;5076195;28;20177;-50
2020/12/29 10:15:31;;;;;;;1.20;0.88;;;;;;;;;;5074708;28;20209;-50
2020/12/29 10:17:57;;;;;;;1.25;1.02;;;;;;;;;;5075760;28;20515;-47
2020/12/29 10:20:23;;;;;;;2.35;0.90;;;;;;;;;;5075739;28;20265;-47
2020/12/29 10:22:49;;;;;;;2.13;0.88;;;;;;;;;;5066662;28;20274;-47
2020/12/29 10:25:15;;;;;;;2.03;0.98;;;;;;;;;;5066241;28;20179;-52
2020/12/29 10:27:45;;;;;;;2.80;0.73;;;;;;;;;;5075617;28;20190;-49
2020/12/29 10:30:11;;;;;;;0.60;0.60;;;;;;;;;;5058174;28;20641;-51
2020/12/29 10:32:38;;;;;;;1.67;0.80;;;;;;;;;;5075220;28;20174;-49
2020/12/29 10:35:04;;;;;;;4.30;0.80;;;;;;;;;;5074661;28;20179;-51
2020/12/29 10:37:31;;;;;;;3.17;0.77;;;;;;;;;;5075019;28;20182;-49
2020/12/29 10:39:57;;;;;;;1.35;0.82;;;;;;;;;;5074560;28;20205;-50
2020/12/29 10:42:23;;;;;;;4.03;0.77;;;;;;;;;;5074804;28;20182;-52
2020/12/29 10:44:49;;;;;;;0.68;0.68;;;;;;;;;;5074991;28;20465;-49
2020/12/29 10:47:15;;;;;;;2.72;1.00;;;;;;;;;;5075628;28;20179;-50
2020/12/29 10:49:41;;;;;;;2.17;0.90;;;;;;;;;;5074683;28;20183;-49
2020/12/29 10:52:07;;;;;;;1.20;0.65;;;;;;;;;;5075267;28;20198;-50
2020/12/29 10:54:33;;;;;;;2.83;0.80;;;;;;;;;;5073652;28;20179;-50
2020/12/29 10:56:59;;;;;;;2.65;0.68;;;;;;;;;;5074178;28;20228;-51
2020/12/29 10:59:25;;;;;;;0.80;0.80;;;;;;;;;;5074321;28;20592;-57
2020/12/29 11:01:57;;;;;;;0.82;0.75;;;;;;;;;;5075286;28;20179;-52
2020/12/29 11:04:24;;;;;;;4.07;1.20;;;;;;;;;;5073329;28;20224;-58
2020/12/29 11:06:50;;;;;;;6.07;1.10;;;;;;;;;;5075192;28;20187;-52
2020/12/29 11:09:16;;;;;;;1.50;1.00;;;;;;;;;;5074615;28;20627;-53
2020/12/29 11:11:42;;;;;;;1.15;0.88;;;;;;;;;;5068847;28;20203;-51
2020/12/29 11:14:09;;;;;;;1.45;1.00;;;;;;;;;;5060985;28;20183;-52
2020/12/29 11:16:35;;;;;;;4.00;0.98;;;;;;;;;;5074130;28;20570;-53
2020/12/29 11:19:01;;;;;;;2.60;1.10;;;;;;;;;;5074447;28;20197;-51
2020/12/29 11:21:27;;;;;;;6.20;1.55;;;;;;;;;;5074671;28;20197;-51
2020/12/29 11:23:53;;;;;;;7.72;2.10;;;;;;;;;;5074742;28;20205;-51
2020/12/29 11:26:22;;;;;;;6.65;2.40;;;;;;;;;;5073611;28;20222;-52
2020/12/29 11:28:49;;;;;;;8.55;2.45;;;;;;;;;;5073211;28;20183;-52
2020/12/29 11:31:15;;;;;;;9.52;2.50;;;;;;;;;;5074579;28;20716;-51
2020/12/29 11:33:41;;;;;;;6.25;2.03;;;;;;;;;;5073876;28;20185;-50
2020/12/29 11:36:08;;;;;;;8.85;2.42;;;;;;;;;;5073753;28;20170;-50
2020/12/29 11:38:34;;;;;;;6.20;2.30;;;;;;;;;;5073591;28;20587;-50
2020/12/29 11:41:00;;;;;;;6.22;2.53;;;;;;;;;;5073865;28;20257;-50
2020/12/29 11:43:26;;;;;;;11.68;4.32;;;;;;;;;;5073623;28;20194;-50
2020/12/29 11:45:52;;;;;;;12.80;4.22;;;;;;;;;;5071962;28;20194;-52
2020/12/29 11:48:18;;;;;;;20.42;5.63;;;;;;;;;;5074273;28;20382;-53
2020/12/29 11:50:44;;;;;;;29.27;6.93;;;;;;;;;;5073872;28;20281;-51
2020/12/29 11:53:10;;;;;;;30.42;6.93;;;;;;;;;;5074184;28;20270;-56
2020/12/29 11:55:36;;;;;;;25.05;6.40;;;;;;;;;;5058685;28;20240;-52
2020/12/29 11:58:02;;;;;;;19.77;5.53;;;;;;;;;;5073704;28;20190;-52
2020/12/29 12:00:28;;;;;;;20.98;6.00;;;;;;;;;;5073537;28;20194;-52
2020/12/29 12:02:54;;;;;;;28.02;6.68;;;;;;;;;;5064037;28;20563;-52
2020/12/29 12:05:20;;;;;;;16.83;5.72;;;;;;;;;;5053905;28;20179;-52
2020/12/29 12:07:46;;;;;;;20.02;6.57;;;;;;;;;;5073227;28;20237;-51
2020/12/29 12:10:13;;;;;;;18.77;5.68;;;;;;;;;;5073931;28;20198;-50
2020/12/29 12:12:39;;;;;;;17.95;5.93;;;;;;;;;;5073483;28;20214;-51
2020/12/29 12:15:06;;;;;;;17.48;5.10;;;;;;;;;;5072359;28;20186;-52
2020/12/29 12:17:32;;;;;;;16.00;5.28;;;;;;;;;;5073459;28;20186;-51
2020/12/29 12:19:58;;;;;;;15.48;5.10;;;;;;;;;;5058624;28;20262;-51
2020/12/29 12:22:24;;;;;;;19.98;5.20;;;;;;;;;;5053735;28;20544;-55
2020/12/29 12:24:50;;;;;;;16.00;4.97;;;;;;;;;;5053292;28;20171;-51
2020/12/29 12:27:16;;;;;;;15.73;4.97;;;;;;;;;;5072692;28;20243;-49
2020/12/29 12:29:42;;;;;;;15.48;4.20;;;;;;;;;;5072872;28;20198;-55
2020/12/29 12:32:08;;;;;;;11.68;4.47;;;;;;;;;;5073495;28;20260;-48
2020/12/29 12:34:34;;;;;;;9.27;3.30;;;;;;;;;;5072922;28;20193;-47
2020/12/29 12:37:00;;;;;;;13.50;4.25;;;;;;;;;;5069691;28;20186;-48
2020/12/29 12:39:27;;;;;;;11.38;3.97;;;;;;;;;;5073059;28;20182;-48
2020/12/29 12:41:53;;;;;;;10.70;4.25;;;;;;;;;;5072879;28;20204;-46
2020/12/29 12:44:19;;;;;;;14.10;4.07;;;;;;;;;;5073251;28;20189;-48
2020/12/29 12:46:45;;;;;;;8.93;3.88;;;;;;;;;;5073105;28;20224;-49
2020/12/29 12:49:12;;;;;;;8.77;4.03;;;;;;;;;;5073681;28;20218;-50
2020/12/29 12:51:38;;;;;;;8.68;3.50;;;;;;;;;;5070857;28;20199;-48
2020/12/29 12:54:04;;;;;;;7.40;3.47;;;;;;;;;;5053143;28;20244;-48
2020/12/29 12:56:30;;;;;;;10.23;3.25;;;;;;;;;;5065136;28;20190;-48
2020/12/29 12:58:57;;;;;;;7.97;3.03;;;;;;;;;;5077546;28;20195;-49
2020/12/29 13:01:23;;;;;;;7.18;2.97;;;;;;;;;;5077301;28;20655;-48
2020/12/29 13:03:49;;;;;;;7.07;2.88;;;;;;;;;;5094555;28;20453;-46
2020/12/29 13:06:25;;;;;;;6.05;2.97;;;;;;;;;;5077113;28;20281;-47
2020/12/29 13:08:51;;;;;;;8.80;3.15;;;;;;;;;;5076525;28;20182;-46
2020/12/29 13:11:17;;;;;;;12.85;3.33;;;;;;;;;;5075906;28;20202;-47
2020/12/29 13:13:43;;;;;;;7.35;3.05;;;;;;;;;;5076836;28;20220;-46
2020/12/29 13:16:10;;;;;;;6.95;2.70;;;;;;;;;;5076533;28;20265;-48
2020/12/29 13:18:36;;;;;;;7.63;2.25;;;;;;;;;;5076889;28;20465;-48
2020/12/29 13:21:02;;;;;;;8.10;2.58;;;;;;;;;;5077413;28;20527;-48
2020/12/29 13:23:28;;;;;;;10.70;2.80;;;;;;;;;;5076658;28;20214;-49
2020/12/29 13:25:54;;;;;;;5.30;2.15;;;;;;;;;;5069618;28;20245;-49
2020/12/29 13:28:20;;;;;;;6.40;2.63;;;;;;;;;;5065179;28;20807;-49
2020/12/29 13:30:46;;;;;;;5.38;2.50;;;;;;;;;;5076548;28;20217;-49
2020/12/29 13:33:12;;;;;;;7.20;2.35;;;;;;;;;;5076841;28;20189;-48
2020/12/29 13:35:38;;;;;;;6.18;2.22;;;;;;;;;;5075730;28;20308;-47
2020/12/29 13:38:07;;;;;;;5.47;2.20;;;;;;;;;;5076738;28;20617;-47
2020/12/29 13:40:34;;;;;;;6.30;2.20;;;;;;;;;;5075868;28;20198;-49
2020/12/29 13:43:00;;;;;;;4.70;2.00;;;;;;;;;;5070594;28;20198;-49
2020/12/29 13:45:26;;;;;;;7.07;2.40;;;;;;;;;;5075391;28;20616;-48
2020/12/29 13:47:52;;;;;;;9.05;2.33;;;;;;;;;;5094985;28;20430;-48
2020/12/29 13:50:18;;;;;;;13.55;4.07;;;;;;;;;;5094492;28;20713;-49
2020/12/29 13:52:44;;;;;;;12.57;3.67;;;;;;;;;;5062034;28;20266;-49
2020/12/29 13:55:10;;;;;;;14.18;4.32;;;;;;;;;;5058360;28;20220;-48
2020/12/29 13:57:36;;;;;;;13.07;4.43;;;;;;;;;;5075877;28;20224;-48
2020/12/29 14:00:03;;;;;;;17.50;5.30;;;;;;;;;;5076290;28;20585;-51
2020/12/29 14:02:29;;;;;;;21.60;6.53;;;;;;;;;;5076065;28;20178;-49
2020/12/29 14:04:55;;;;;;;20.50;6.60;;;;;;;;;;5075789;28;20197;-49
2020/12/29 14:07:21;;;;;;;20.02;6.40;;;;;;;;;;5076304;28;20175;-49
2020/12/29 14:09:47;;;;;;;24.10;5.82;;;;;;;;;;5074761;28;20186;-49
2020/12/29 14:12:12;;;;;;;21.83;6.43;;;;;;;;;;5075933;28;20225;-48
2020/12/29 14:14:38;;;;;;;18.70;6.25;;;;;;;;;;5074842;28;20228;-48
2020/12/29 14:17:04;;;;;;;17.08;5.95;;;;;;;;;;5075967;28;20458;-48
2020/12/29 14:19:30;;;;;;;23.85;6.90;;;;;;;;;;5075666;28;20174;-50
2020/12/29 14:21:56;;;;;;;18.85;6.35;;;;;;;;;;5075980;28;20182;-48
2020/12/29 14:24:26;;;;;;;22.33;6.55;;;;;;;;;;5075304;28;20185;-49
2020/12/29 14:26:53;;;;;;;18.58;6.25;;;;;;;;;;5063690;28;20191;-49
2020/12/29 14:29:19;;;;;;;20.25;6.50;;;;;;;;;;5055972;28;20179;-46
2020/12/29 14:31:49;;;;;;;36.33;10.90;;;;;;;;;;5074214;28;20305;-45
2020/12/29 14:34:15;;;;;;;71.00;25.05;;;;;;;;;;5075059;28;20461;-45
2020/12/29 14:36:42;;;;;;;74.95;26.98;;;;;;;;;;5075458;28;20224;-45
2020/12/29 14:39:08;;;;;;;75.05;27.38;;;;;;;;;;5075542;28;20178;-45